Time;durP1;ratioP1;P1;durP2;ratioP2;P2;SDS_P1;SDS_P2;PMS_P1;PMS_P2;Temp;Humidity;BMP_temperature;BMP_pressure;BME280_temperature;BME280_humidity;BME280_pressure;Samples;Min_cycle;Max_cycle;Signal;HPM_P1;HPM_P2
2021/12/17 00:04:39;;;;;;;1999.90;999.90;;;;;;;6.44;100.00;164114.88;5041031;28;20104;-67
2021/12/17 00:07:14;;;;;;;1999.90;999.90;;;;;;;6.51;100.00;164132.75;5075372;28;20131;-67
2021/12/17 00:09:42;;;;;;;1999.90;999.90;;;;;;;6.22;100.00;164055.81;5049849;28;20089;-68
2021/12/17 00:12:11;;;;;;;1999.90;999.90;;;;;;;5.99;100.00;163994.06;5042988;28;20048;-67
2021/12/17 00:14:39;;;;;;;1999.90;999.90;;;;;;;5.96;100.00;163987.13;5044884;28;20045;-68
2021/12/17 00:17:11;;;;;;;1999.90;999.90;;;;;;;5.99;100.00;163994.06;5039288;28;20045;-68
2021/12/17 00:52:29;;;;;;;1999.90;999.90;;;;;;;6.19;100.00;164047.59;5035470;28;20049;-67
2021/12/17 00:54:55;;;;;;;1999.90;999.90;;;;;;;5.89;100.00;163967.88;5045099;28;20092;-67
2021/12/17 00:57:26;;;;;;;1999.90;999.90;;;;;;;6.19;100.00;164046.22;5040872;28;20084;-67
2021/12/17 00:59:55;;;;;;;1999.90;999.90;;;;;;;5.84;100.00;163954.19;5044568;28;20441;-67
2021/12/17 01:02:27;;;;;;;1999.90;999.90;;;;;;;5.85;100.00;163955.53;5040835;28;20130;-67
2021/12/17 01:05:00;;;;;;;1999.90;999.90;;;;;;;5.49;100.00;163860.81;5040474;28;20126;-67
2021/12/17 01:07:31;;;;;;;1999.90;999.90;;;;;;;5.59;100.00;163888.28;5041368;28;20138;-67
2021/12/17 01:10:00;;;;;;;1999.90;999.90;;;;;;;5.54;100.00;163874.56;5041012;28;20370;-67
2021/12/17 01:12:27;;;;;;;1999.90;999.90;;;;;;;5.80;100.00;163943.19;5043916;28;20076;-66
2021/12/17 01:14:54;;;;;;;1999.90;999.90;;;;;;;5.46;100.00;163852.59;5043674;28;20101;-66
2021/12/17 01:17:24;;;;;;;1999.90;999.90;;;;;;;5.48;100.00;163858.09;5044769;28;20060;-66
2021/12/17 01:20:19;;;;;;;1999.90;999.90;;;;;;;5.68;100.00;163910.25;5039567;28;20045;-67
2021/12/17 01:25:36;;;;;;;1999.90;999.90;;;;;;;5.34;100.00;163821.03;5038546;28;20107;-67
2021/12/17 01:36:27;;;;;;;1999.90;999.90;;;;;;;5.49;100.00;163860.81;5042575;28;20047;-67
2021/12/17 01:44:08;;;;;;;1999.90;999.90;;;;;;;5.60;100.00;163891.03;5031726;28;20041;-67
2021/12/17 01:46:37;;;;;;;1999.90;999.90;;;;;;;5.62;100.00;163895.16;5039527;28;20049;-67
2021/12/17 01:59:58;;;;;;;1999.90;999.90;;;;;;;5.30;100.00;163810.06;5034647;28;20045;-66
2021/12/17 02:02:27;;;;;;;1999.90;999.90;;;;;;;5.08;100.00;163752.41;5035692;28;20041;-66
2021/12/17 02:04:53;;;;;;;1999.90;999.90;;;;;;;5.12;100.00;163762.00;5047279;28;20045;-66
2021/12/17 02:07:20;;;;;;;1999.90;999.90;;;;;;;5.04;100.00;163741.44;5035232;28;20085;-66
2021/12/17 02:28:43;;;;;;;1999.90;999.90;;;;;;;6.04;100.00;164006.41;5042481;28;20041;-67
2021/12/17 02:28:59;;;;;;;1999.90;999.90;;;;;;;5.93;100.00;163977.53;5036221;28;20107;-67
2021/12/17 02:33:56;;;;;;;1999.90;999.90;;;;;;;5.72;100.00;163921.25;5038085;28;20088;-67
2021/12/17 02:36:26;;;;;;;1999.90;999.90;;;;;;;5.43;100.00;163844.34;5035556;28;20085;-67
2021/12/17 02:47:11;;;;;;;1999.90;999.90;;;;;;;6.23;100.00;164057.22;5042071;28;20362;-67
2021/12/17 02:49:42;;;;;;;1999.90;999.90;;;;;;;6.14;100.00;164035.22;5043867;28;20080;-67
2021/12/17 02:52:09;;;;;;;1999.90;999.90;;;;;;;5.75;100.00;163930.84;5034961;28;20044;-67
2021/12/17 02:54:37;;;;;;;1999.90;999.90;;;;;;;5.93;100.00;163977.53;5035182;28;20088;-67
2021/12/17 02:57:05;;;;;;;1999.90;999.90;;;;;;;5.79;100.00;163940.44;5039302;28;20050;-67
2021/12/17 02:59:34;;;;;;;1999.90;999.90;;;;;;;5.76;100.00;163932.19;5046151;28;20057;-67
2021/12/17 03:02:03;;;;;;;1999.90;999.90;;;;;;;5.78;100.00;163937.72;5034498;28;20392;-67
2021/12/17 03:04:31;;;;;;;1999.90;999.90;;;;;;;5.65;100.00;163904.75;5035335;28;20085;-66
2021/12/17 03:06:58;;;;;;;1999.90;999.90;;;;;;;5.93;100.00;163978.88;5038913;28;20141;-67
2021/12/17 03:10:01;;;;;;;1999.90;999.90;;;;;;;5.77;100.00;163934.97;5042704;28;20084;-67
2021/12/17 03:12:25;;;;;;;1999.90;999.90;;;;;;;4.86;100.00;163693.41;5044181;28;20302;-66
2021/12/17 03:15:03;;;;;;;1999.90;999.90;;;;;;;4.83;100.00;163683.84;5069981;28;20061;-66
2021/12/17 03:25:44;;;;;;;1999.90;999.90;;;;;;;5.35;100.00;163822.44;5037315;28;20233;-67
2021/12/17 03:28:10;;;;;;;1999.90;999.90;;;;;;;5.25;100.00;163797.69;5037982;28;20049;-67
2021/12/17 03:30:37;;;;;;;1999.90;999.90;;;;;;;5.35;100.00;163822.44;5045323;28;20080;-67
2021/12/17 03:33:03;;;;;;;1999.90;999.90;;;;;;;5.55;100.00;163875.94;5046961;28;20081;-67
2021/12/17 03:35:30;;;;;;;1999.90;999.90;;;;;;;5.49;100.00;163860.81;5034720;28;20053;-67
2021/12/17 03:37:57;;;;;;;1999.90;999.90;;;;;;;5.26;100.00;163800.44;5038375;28;20131;-67
2021/12/17 03:40:24;;;;;;;1999.90;999.90;;;;;;;5.58;100.00;163885.56;5041306;28;20118;-67
2021/12/17 03:42:51;;;;;;;1999.90;999.90;;;;;;;5.15;100.00;163770.28;5037080;28;20111;-67
2021/12/17 03:45:19;;;;;;;1999.90;999.90;;;;;;;4.86;100.00;163692.06;5045612;28;20401;-67
2021/12/17 03:47:46;;;;;;;1999.90;999.90;;;;;;;5.06;100.00;163746.94;5070885;28;20048;-67
2021/12/17 03:50:13;;;;;;;1999.90;999.90;;;;;;;5.19;100.00;163779.88;5037234;28;20132;-67
2021/12/17 03:52:40;;;;;;;1999.90;999.90;;;;;;;5.06;100.00;163746.94;5042151;28;20085;-67
2021/12/17 03:55:07;;;;;;;1999.90;999.90;;;;;;;5.24;100.00;163793.56;5040159;28;20129;-67
2021/12/17 03:57:35;;;;;;;1999.90;999.90;;;;;;;5.53;100.00;163871.81;5039735;28;20206;-66
2021/12/17 04:00:04;;;;;;;1999.90;999.90;;;;;;;5.20;100.00;163783.97;5041120;28;20092;-66
2021/12/17 04:02:31;;;;;;;1999.90;999.90;;;;;;;5.49;100.00;163860.81;5046842;28;20085;-68
2021/12/17 04:04:57;;;;;;;1999.90;999.90;;;;;;;5.29;100.00;163807.31;5031923;28;20089;-67
2021/12/17 04:07:24;;;;;;;1999.90;999.90;;;;;;;5.29;100.00;163808.66;5042227;28;20277;-67
2021/12/17 04:09:51;;;;;;;1999.90;999.90;;;;;;;5.17;100.00;163775.75;5043481;28;20103;-67
2021/12/17 04:12:20;;;;;;;1999.90;999.90;;;;;;;5.12;100.00;163762.00;5045641;28;20103;-67
2021/12/17 04:14:48;;;;;;;1999.90;999.90;;;;;;;4.98;100.00;163723.63;5036374;28;20053;-68
2021/12/17 04:17:22;;;;;;;1999.90;999.90;;;;;;;5.08;100.00;163752.41;5038084;28;20666;-67
2021/12/17 04:19:49;;;;;;;1999.90;999.90;;;;;;;5.48;100.00;163858.09;5038621;28;20056;-67
2021/12/17 04:22:16;;;;;;;1999.90;999.90;;;;;;;5.39;100.00;163833.38;5044337;28;20158;-67
2021/12/17 04:24:42;;;;;;;1999.90;999.90;;;;;;;5.22;100.00;163789.44;5041880;28;20064;-67
2021/12/17 04:27:10;;;;;;;1999.90;999.90;;;;;;;4.90;100.00;163704.41;5035822;28;20563;-67
2021/12/17 04:29:42;;;;;;;1999.90;999.90;;;;;;;5.16;100.00;163773.00;5047255;28;20080;-67
2021/12/17 04:32:08;;;;;;;1999.90;999.90;;;;;;;5.04;100.00;163741.44;5034593;28;20130;-67
2021/12/17 04:34:35;;;;;;;1999.90;999.90;;;;;;;4.64;100.00;163633.06;5040958;28;20134;-67
2021/12/17 04:37:02;;;;;;;1999.90;999.90;;;;;;;4.62;100.00;163627.59;5042403;28;20106;-67
2021/12/17 04:39:28;;;;;;;1999.90;999.90;;;;;;;4.83;100.00;163685.19;5041955;28;20107;-67
2021/12/17 04:42:01;;;;;;;1999.90;999.90;;;;;;;4.76;100.00;163665.97;5033748;28;20053;-67
2021/12/17 04:44:32;;;;;;;1999.90;999.90;;;;;;;5.08;100.00;163751.06;5037043;28;20111;-67
2021/12/17 04:57:53;;;;;;;1999.90;999.90;;;;;;;5.26;100.00;163800.44;5042007;28;20095;-67
2021/12/17 05:00:24;;;;;;;1999.90;999.90;;;;;;;4.92;100.00;163708.50;5043523;28;20329;-67
2021/12/17 05:02:54;;;;;;;1999.90;999.90;;;;;;;5.60;100.00;163891.03;5043949;28;20134;-67
2021/12/17 05:05:26;;;;;;;1999.90;999.90;;;;;;;5.70;100.00;163915.72;5045677;28;20052;-67
2021/12/17 05:07:58;;;;;;;1999.90;999.90;;;;;;;5.33;100.00;163816.91;5043194;28;23418;-67
2021/12/17 05:21:23;;;;;;;1999.90;999.90;;;;;;;4.94;100.00;163715.38;5041459;28;20142;-67
2021/12/17 05:23:51;;;;;;;1999.90;999.90;;;;;;;5.32;100.00;163814.19;5040044;28;20041;-67
2021/12/17 05:26:20;;;;;;;1999.90;999.90;;;;;;;4.77;100.00;163668.72;5041069;28;20049;-67
2021/12/17 05:28:50;;;;;;;1999.90;999.90;;;;;;;4.98;100.00;163723.63;5043528;28;20341;-67
2021/12/17 05:31:21;;;;;;;1999.90;999.90;;;;;;;4.85;100.00;163690.66;5042066;28;20409;-66
2021/12/17 05:33:49;;;;;;;1999.90;999.90;;;;;;;4.69;100.00;163648.16;5041081;28;20041;-67
2021/12/17 05:36:16;;;;;;;1999.90;999.90;;;;;;;5.10;100.00;163757.88;5043260;28;20174;-66
2021/12/17 05:38:43;;;;;;;1999.90;999.90;;;;;;;5.03;100.00;163737.31;5041605;28;20072;-66
2021/12/17 05:41:10;;;;;;;1999.90;999.90;;;;;;;4.65;100.00;163637.19;5034133;28;20085;-67
2021/12/17 05:43:38;;;;;;;1999.90;999.90;;;;;;;4.54;100.00;163608.38;5039047;28;20083;-68
2021/12/17 05:48:34;;;;;;;1999.90;999.90;;;;;;;4.86;100.00;163693.41;5041761;28;20058;-68
2021/12/17 05:51:03;;;;;;;1999.90;999.90;;;;;;;4.93;100.00;163711.28;5036893;28;20084;-68
2021/12/17 05:53:30;;;;;;;1999.90;999.90;;;;;;;4.90;100.00;163704.41;5036285;28;20075;-68
2021/12/17 05:55:57;;;;;;;1999.90;999.90;;;;;;;4.65;100.00;163637.19;5038213;28;20393;-68
2021/12/17 05:58:26;;;;;;;1999.90;999.90;;;;;;;4.55;100.00;163611.09;5041852;28;20060;-68
2021/12/17 06:00:53;;;;;;;1999.90;999.90;;;;;;;4.41;100.00;163572.72;5043000;28;20041;-68
2021/12/17 06:03:23;;;;;;;1999.90;999.90;;;;;;;4.71;100.00;163652.28;5040469;28;20079;-69
2021/12/17 06:05:49;;;;;;;1999.90;999.90;;;;;;;4.88;100.00;163698.94;5055095;28;20454;-68
2021/12/17 06:08:16;;;;;;;1999.90;999.90;;;;;;;5.05;100.00;163742.84;5039185;28;20079;-68
2021/12/17 06:10:43;;;;;;;1999.90;999.90;;;;;;;5.15;100.00;163770.28;5041681;28;20061;-68
2021/12/17 06:13:10;;;;;;;1999.90;999.90;;;;;;;5.51;100.00;163866.34;5043084;28;20111;-67
2021/12/17 06:15:36;;;;;;;1999.90;999.90;;;;;;;5.27;100.00;163801.84;5045235;28;20106;-66
2021/12/17 06:18:03;;;;;;;1999.90;999.90;;;;;;;4.87;100.00;163696.19;5036540;28;20072;-67
2021/12/17 06:20:30;;;;;;;1999.90;999.90;;;;;;;5.10;100.00;163756.53;5046890;28;20087;-67
2021/12/17 06:22:56;;;;;;;1999.90;999.90;;;;;;;4.82;100.00;163682.44;5036451;28;20041;-67
2021/12/17 06:25:23;;;;;;;1999.90;999.90;;;;;;;5.00;100.00;163730.50;5033836;28;20103;-68
2021/12/17 06:27:53;;;;;;;1999.90;999.90;;;;;;;5.33;100.00;163818.31;5042774;28;20044;-68
2021/12/17 06:30:20;;;;;;;1999.90;999.90;;;;;;;5.38;100.00;163830.66;5036834;28;20092;-67
2021/12/17 06:32:47;;;;;;;1999.90;999.90;;;;;;;5.58;100.00;163884.16;5040291;28;20044;-68
2021/12/17 06:35:15;;;;;;;1999.90;999.90;;;;;;;5.49;100.00;163860.81;5044813;28;20049;-68
2021/12/17 06:37:43;;;;;;;1999.90;999.90;;;;;;;5.92;100.00;163976.13;5038443;28;20396;-66
2021/12/17 06:40:10;;;;;;;1999.90;999.90;;;;;;;5.91;100.00;163973.41;5043872;28;20405;-67
2021/12/17 06:42:37;;;;;;;1999.90;999.90;;;;;;;5.26;100.00;163800.44;5043880;28;20378;-68
2021/12/17 06:45:09;;;;;;;1999.90;999.90;;;;;;;5.42;100.00;163841.66;5041288;28;20254;-68
2021/12/17 06:47:37;;;;;;;;;;;;;;;5.43;100.00;163845.75;5046317;28;21132;-68
2021/12/17 07:06:06;;;;;;;1999.90;999.90;;;;;;;5.31;100.00;163812.78;5042429;28;20052;-68
2021/12/17 07:31:51;;;;;;;1999.90;999.90;;;;;;;5.03;100.00;163737.31;5036735;28;20352;-67
2021/12/17 07:33:10;;;;;;;1999.90;999.90;;;;;;;5.31;100.00;163811.44;5043753;28;20106;-67
2021/12/17 07:40:56;;;;;;;1999.90;999.90;;;;;;;5.51;100.00;163866.34;5044891;28;20422;-67
2021/12/17 07:43:36;;;;;;;1999.90;999.90;;;;;;;5.78;100.00;163937.72;5045946;28;20080;-67
2021/12/17 07:46:06;;;;;;;1999.90;999.90;;;;;;;5.91;100.00;163973.41;5044536;28;20110;-67
2021/12/17 07:48:33;;;;;;;1999.90;999.90;;;;;;;5.49;100.00;163859.47;5034687;28;20088;-67
2021/12/17 07:51:02;;;;;;;1999.90;999.90;;;;;;;5.46;100.00;163854.00;5046535;28;20442;-68
2021/12/17 07:53:30;;;;;;;1999.90;999.90;;;;;;;5.55;100.00;163877.34;5042805;28;20108;-68
2021/12/17 07:56:00;;;;;;;1999.90;999.90;;;;;;;5.28;100.00;163804.56;5045776;28;20426;-68
2021/12/17 07:58:28;;;;;;;1999.90;999.90;;;;;;;5.21;100.00;163785.34;5039304;28;20107;-68
2021/12/17 08:00:56;;;;;;;1999.90;999.90;;;;;;;5.25;100.00;163797.69;5045648;28;20099;-65
2021/12/17 08:03:23;;;;;;;1999.90;999.90;;;;;;;4.90;100.00;163704.41;5039811;28;20124;-65
2021/12/17 08:05:51;;;;;;;1999.90;999.90;;;;;;;4.93;100.00;163711.28;5031797;28;20049;-67
2021/12/17 08:08:18;;;;;;;1999.90;999.90;;;;;;;4.54;100.00;163606.97;5044335;28;20078;-66
2021/12/17 08:10:47;;;;;;;1999.90;999.90;;;;;;;4.87;100.00;163696.19;5043197;28;20148;-66
2021/12/17 08:13:24;;;;;;;1999.90;999.90;;;;;;;4.59;100.00;163620.72;5049322;28;20084;-66
2021/12/17 08:26:25;;;;;;;1999.90;999.90;;;;;;;5.05;100.00;163744.19;5039470;28;20045;-66
2021/12/17 08:31:22;;;;;;;1999.90;999.90;;;;;;;5.28;100.00;163805.97;5059260;28;20057;-66
2021/12/17 08:33:48;;;;;;;1999.90;999.90;;;;;;;5.54;100.00;163874.56;5040712;28;20131;-66
2021/12/17 08:36:15;;;;;;;1999.90;999.90;;;;;;;5.81;100.00;163945.94;5045710;28;20076;-66
2021/12/17 08:38:46;;;;;;;1999.90;999.90;;;;;;;5.62;100.00;163895.16;5048717;28;20080;-67
2021/12/17 08:41:14;;;;;;;1999.90;999.90;;;;;;;5.30;100.00;163810.06;5044397;28;20091;-66
2021/12/17 08:43:41;;;;;;;1999.90;999.90;;;;;;;5.47;100.00;163856.69;5036522;28;20053;-66
2021/12/17 08:46:08;;;;;;;1999.90;999.90;;;;;;;4.77;100.00;163668.72;5035247;28;20045;-65
2021/12/17 08:48:35;;;;;;;1999.90;999.90;;;;;;;4.59;100.00;163622.06;5045097;28;20403;-66
2021/12/17 08:51:03;;;;;;;1999.90;999.90;;;;;;;5.52;100.00;163869.06;5043105;28;20208;-66
2021/12/17 08:53:29;;;;;;;1999.90;999.90;;;;;;;5.01;100.00;163733.19;5045335;28;20496;-66
2021/12/17 08:55:56;;;;;;;1999.90;999.90;;;;;;;5.38;100.00;163830.66;5040911;28;20104;-66
2021/12/17 08:58:22;;;;;;;1999.90;999.90;;;;;;;5.68;100.00;163910.25;5041820;28;20048;-67
2021/12/17 09:00:52;;;;;;;1999.90;999.90;;;;;;;5.33;100.00;163818.31;5042663;28;20055;-67
2021/12/17 09:03:19;;;;;;;1999.90;999.90;;;;;;;5.70;100.00;163915.72;5045959;28;20055;-67
2021/12/17 09:05:46;;;;;;;1999.90;999.90;;;;;;;5.88;100.00;163965.19;5037054;28;20045;-67
2021/12/17 09:08:13;;;;;;;1999.90;999.90;;;;;;;4.72;100.00;163656.38;5037788;28;20095;-66
2021/12/17 09:10:44;;;;;;;1999.90;999.90;;;;;;;5.24;100.00;163794.97;5040255;28;20084;-67
2021/12/17 09:13:11;;;;;;;1999.90;999.90;;;;;;;5.52;100.00;163869.06;5045130;28;20099;-67
2021/12/17 09:15:39;;;;;;;1999.90;999.90;;;;;;;5.59;100.00;163888.28;5045472;28;20040;-67
2021/12/17 09:18:06;;;;;;;1999.90;999.90;;;;;;;5.50;100.00;163863.56;5042200;28;20099;-65
2021/12/17 09:20:33;;;;;;;1999.90;999.90;;;;;;;5.68;100.00;163910.25;5039327;28;20041;-67
2021/12/17 09:22:59;;;;;;;1999.90;999.90;;;;;;;5.56;100.00;163880.03;5042450;28;20085;-66
2021/12/17 09:25:26;;;;;;;1999.90;999.90;;;;;;;5.63;100.00;163899.28;5036686;28;20100;-66
2021/12/17 09:27:53;;;;;;;1999.90;999.90;;;;;;;5.56;100.00;163880.03;5039229;28;20049;-66
2021/12/17 09:30:20;;;;;;;1999.90;999.90;;;;;;;5.66;100.00;163906.16;5034827;28;20103;-67
2021/12/17 09:32:47;;;;;;;1999.90;999.90;;;;;;;5.98;100.00;163992.69;5043242;28;20045;-66
2021/12/17 09:35:14;;;;;;;1999.90;999.90;;;;;;;5.68;100.00;163910.25;5041916;28;20068;-66
2021/12/17 09:37:40;;;;;;;1999.90;999.90;;;;;;;5.17;100.00;163775.75;5042938;28;20076;-66
2021/12/17 09:40:10;;;;;;;1999.90;999.90;;;;;;;5.65;100.00;163904.75;5046637;28;20045;-66
2021/12/17 09:42:37;;;;;;;1999.90;999.90;;;;;;;5.59;100.00;163888.28;5040850;28;20076;-66
2021/12/17 09:45:04;;;;;;;1999.90;999.90;;;;;;;5.56;100.00;163880.03;5037240;28;20203;-66
2021/12/17 09:47:31;;;;;;;1999.90;999.90;;;;;;;5.93;100.00;163978.88;5043276;28;20080;-67
2021/12/17 09:49:58;;;;;;;1999.90;999.90;;;;;;;5.94;100.00;163980.25;5045726;28;20065;-67
2021/12/17 09:52:25;;;;;;;1999.90;999.90;;;;;;;5.49;100.00;163860.81;5047519;28;20044;-67
2021/12/17 09:54:53;;;;;;;1999.90;999.90;;;;;;;5.37;100.00;163827.88;5035051;28;20397;-67
2021/12/17 09:57:20;;;;;;;1999.90;999.90;;;;;;;4.99;100.00;163726.31;5040211;28;20045;-67
2021/12/17 09:59:47;;;;;;;1999.90;999.90;;;;;;;5.18;100.00;163777.09;5039866;28;20079;-67
2021/12/17 10:02:14;;;;;;;1999.90;999.90;;;;;;;5.00;100.00;163729.09;5030303;28;20390;-66
2021/12/17 10:04:45;;;;;;;1999.90;999.90;;;;;;;4.83;100.00;163685.19;5042655;28;20315;-68
2021/12/17 10:07:20;;;;;;;1999.90;999.90;;;;;;;5.25;100.00;163797.69;5044210;28;20119;-67
2021/12/17 10:10:05;;;;;;;1999.90;999.90;;;;;;;5.25;100.00;163797.69;5048087;28;20056;-67
2021/12/17 10:12:35;;;;;;;1999.90;999.90;;;;;;;5.00;100.00;163729.09;5037501;28;20058;-67
2021/12/17 10:15:11;;;;;;;1999.90;999.90;;;;;;;5.63;100.00;163897.91;5037764;28;20093;-67
2021/12/17 10:17:59;;;;;;;1999.90;999.90;;;;;;;6.20;97.15;164049.00;5037371;28;20060;-67
2021/12/17 10:20:27;;;;;;;1999.90;999.90;;;;;;;5.82;97.39;163948.66;5043919;28;20049;-67
2021/12/17 10:23:01;;;;;;;1999.90;999.90;;;;;;;5.45;98.64;163849.88;5043794;28;20091;-67
2021/12/17 10:25:29;;;;;;;1999.90;999.90;;;;;;;5.25;99.01;163797.69;5040620;28;20086;-67
2021/12/17 10:28:01;;;;;;;1999.90;999.90;;;;;;;5.81;97.98;163945.94;5034679;28;20507;-67
2021/12/17 10:30:29;;;;;;;1999.90;999.90;;;;;;;5.98;97.75;163992.69;5036278;28;20088;-67
2021/12/17 10:32:59;;;;;;;1999.90;999.90;;;;;;;5.87;97.67;163961.06;5044793;28;20426;-67
2021/12/17 10:35:28;;;;;;;1999.90;999.90;;;;;;;5.86;96.25;163958.31;5033249;28;20140;-67
2021/12/17 10:37:57;;;;;;;1999.90;999.90;;;;;;;5.16;100.00;163773.00;5036621;28;20044;-67
2021/12/17 10:40:29;;;;;;;1999.90;999.90;;;;;;;5.44;99.32;163848.47;5037101;28;20102;-67
2021/12/17 10:43:05;;;;;;;1999.90;999.90;;;;;;;5.06;100.00;163746.94;5040976;28;20080;-67
2021/12/17 10:45:38;;;;;;;1999.90;999.90;;;;;;;5.48;100.00;163858.09;5043285;28;20110;-67
2021/12/17 10:51:16;;;;;;;1999.90;999.90;;;;;;;5.49;100.00;163860.81;5058804;28;20434;-67
2021/12/17 10:53:53;;;;;;;1999.90;999.90;;;;;;;6.02;98.04;164000.94;5035725;28;20491;-67
2021/12/17 10:56:30;;;;;;;1999.90;999.90;;;;;;;5.58;98.52;163884.16;5046639;28;20052;-67
2021/12/17 10:59:12;;;;;;;1999.90;999.90;;;;;;;5.56;99.25;163880.03;5038880;28;20049;-67
2021/12/17 11:01:47;;;;;;;1999.90;999.90;;;;;;;5.72;99.64;163921.25;5035348;28;20041;-67
2021/12/17 11:04:24;;;;;;;1999.90;999.90;;;;;;;5.82;98.49;163948.66;5035181;28;20054;-67
2021/12/17 11:06:54;;;;;;;1999.90;999.90;;;;;;;5.89;99.09;163966.53;5038584;28;20057;-67
2021/12/17 11:09:41;;;;;;;1999.90;999.90;;;;;;;5.37;100.00;163827.88;5042558;28;20106;-67
2021/12/17 11:12:12;;;;;;;1999.90;999.90;;;;;;;5.32;100.00;163815.56;5034650;28;20443;-67
2021/12/17 11:14:40;;;;;;;1999.90;999.90;;;;;;;6.16;98.57;164040.75;5045494;28;21036;-67
2021/12/17 11:17:11;;;;;;;1999.90;999.90;;;;;;;5.74;98.24;163926.72;5036530;28;20053;-67
2021/12/17 11:20:01;;;;;;;1999.90;999.90;;;;;;;6.02;99.36;164000.94;5035676;28;20091;-67
2021/12/17 11:22:29;;;;;;;1999.90;999.90;;;;;;;5.42;99.58;163841.66;5043655;28;20350;-67
2021/12/17 11:24:59;;;;;;;1999.90;999.90;;;;;;;5.79;99.62;163940.44;5033372;28;20434;-67
2021/12/17 11:27:26;;;;;;;1999.90;999.90;;;;;;;5.69;99.70;163914.38;5040558;28;20127;-67
2021/12/17 11:29:54;;;;;;;1999.90;999.90;;;;;;;5.26;100.00;163800.44;5039079;28;20111;-67
2021/12/17 11:32:20;;;;;;;1999.90;999.90;;;;;;;5.59;99.80;163886.91;5045102;28;20373;-67
2021/12/17 11:34:47;;;;;;;1999.90;999.90;;;;;;;5.27;100.00;163801.84;5071769;28;20562;-67
2021/12/17 11:37:15;;;;;;;1999.90;999.90;;;;;;;5.01;100.00;163733.19;5041028;28;20126;-67
2021/12/17 11:39:50;;;;;;;1999.90;999.90;;;;;;;5.53;99.37;163871.81;5043922;28;20690;-67
2021/12/17 11:43:04;;;;;;;1999.90;999.90;;;;;;;5.23;99.69;163792.22;5044693;28;20123;-67
2021/12/17 11:45:31;;;;;;;1999.90;999.90;;;;;;;4.67;100.00;163641.28;5043592;28;20044;-66
2021/12/17 11:48:19;;;;;;;1999.90;999.90;;;;;;;5.05;100.00;163742.84;5041947;28;20049;-67
2021/12/17 11:51:02;;;;;;;1999.90;999.90;;;;;;;5.09;99.90;163755.19;5037978;28;20084;-67
2021/12/17 11:53:31;;;;;;;1999.90;999.90;;;;;;;5.11;98.73;163759.28;5041142;28;20106;-66
2021/12/17 11:56:01;;;;;;;1999.90;999.90;;;;;;;4.96;100.00;163718.09;5054777;28;20089;-67
2021/12/17 11:58:49;;;;;;;1999.90;999.90;;;;;;;5.17;99.76;163774.41;5032855;28;20054;-67
2021/12/17 12:01:48;;;;;;;1999.90;999.90;;;;;;;5.79;97.31;163940.44;5039805;28;20077;-67
2021/12/17 12:04:21;;;;;;;1999.90;999.90;;;;;;;5.74;96.95;163926.72;5040935;28;20049;-67
2021/12/17 12:07:11;;;;;;;1999.90;999.90;;;;;;;5.29;96.62;163808.66;5041340;28;20049;-67
2021/12/17 12:09:59;;;;;;;1999.90;999.90;;;;;;;5.19;98.20;163781.22;5040469;28;20045;-67
2021/12/17 12:12:35;;;;;;;1999.90;999.90;;;;;;;4.87;98.76;163696.19;5040323;28;20049;-67
2021/12/17 12:15:16;;;;;;;1999.90;999.90;;;;;;;4.90;99.39;163704.41;5039830;28;20085;-67
2021/12/17 12:18:03;;;;;;;1999.90;999.90;;;;;;;4.90;99.98;163704.41;5035880;28;20495;-67
2021/12/17 12:20:48;;;;;;;1999.90;999.90;;;;;;;4.75;99.84;163663.25;5040005;28;20466;-67
2021/12/17 12:23:15;;;;;;;1999.90;999.90;;;;;;;4.94;99.28;163713.97;5042072;28;20472;-67
2021/12/17 12:25:42;;;;;;;1999.90;999.90;;;;;;;5.32;97.65;163815.56;5043289;28;20048;-67
2021/12/17 12:28:12;;;;;;;1999.90;999.90;;;;;;;5.28;97.24;163805.97;5046335;28;20102;-67
2021/12/17 12:30:42;;;;;;;1999.90;999.90;;;;;;;4.99;97.80;163726.31;5037623;28;20596;-67
2021/12/17 12:33:12;;;;;;;1999.90;999.90;;;;;;;4.99;97.06;163727.72;5040883;28;20080;-67
2021/12/17 12:35:39;;;;;;;1999.90;999.90;;;;;;;4.48;99.52;163590.53;5043548;28;20055;-67
2021/12/17 12:38:17;;;;;;;1999.90;999.90;;;;;;;5.13;97.85;163764.75;5042333;28;20379;-67
2021/12/17 12:40:51;;;;;;;1999.90;999.90;;;;;;;5.54;95.85;163874.56;5045098;28;20053;-67
2021/12/17 12:43:32;;;;;;;1999.90;999.90;;;;;;;5.37;96.39;163829.25;5043441;28;20057;-67
2021/12/17 12:45:59;;;;;;;1999.90;999.90;;;;;;;5.44;95.61;163847.13;5035772;28;20106;-67
2021/12/17 12:48:39;;;;;;;1999.90;999.90;;;;;;;4.73;97.15;163657.75;5045639;28;20107;-66
2021/12/17 12:51:13;;;;;;;1999.90;999.90;;;;;;;5.18;96.57;163778.50;5040429;28;20056;-67
2021/12/17 12:53:46;;;;;;;1999.90;999.90;;;;;;;5.08;96.45;163752.41;5047287;28;20057;-67
2021/12/17 12:56:18;;;;;;;1999.90;999.90;;;;;;;5.27;96.11;163803.19;5034602;28;20053;-67
2021/12/17 12:58:49;;;;;;;1999.90;999.90;;;;;;;5.02;96.30;163734.59;5041757;28;20049;-67
2021/12/17 13:01:19;;;;;;;1999.90;999.90;;;;;;;4.78;97.94;163670.09;5035424;28;20056;-67
2021/12/17 13:03:47;;;;;;;1999.90;999.90;;;;;;;4.92;98.07;163709.88;5043988;28;20062;-67
2021/12/17 13:06:19;;;;;;;1999.90;999.90;;;;;;;5.08;97.97;163751.06;5037479;28;20050;-67
2021/12/17 13:08:54;;;;;;;1999.90;999.90;;;;;;;5.05;97.27;163744.19;5034799;28;20080;-67
2021/12/17 13:11:22;;;;;;;1999.90;999.90;;;;;;;4.65;100.00;163635.81;5036158;28;20125;-67
2021/12/17 13:13:53;;;;;;;1999.90;999.90;;;;;;;5.03;100.00;163738.72;5039284;28;20091;-67
2021/12/17 13:21:59;;;;;;;1999.90;999.90;;;;;;;5.17;98.06;163775.75;5041305;28;20072;-67
2021/12/17 13:24:30;;;;;;;1999.90;999.90;;;;;;;5.34;97.66;163819.66;5041621;28;20107;-67
2021/12/17 13:27:09;;;;;;;1999.90;999.90;;;;;;;5.61;96.97;163892.38;5043256;28;20117;-67
2021/12/17 13:29:43;;;;;;;1999.90;999.90;;;;;;;4.97;97.50;163720.84;5032775;28;20081;-67
2021/12/17 13:32:17;;;;;;;1999.90;999.90;;;;;;;4.91;98.85;163707.16;5042134;28;20048;-67
2021/12/17 13:34:53;;;;;;;1999.90;999.90;;;;;;;4.74;99.23;163660.50;5036368;28;20049;-66
2021/12/17 13:37:23;;;;;;;1999.90;999.90;;;;;;;4.58;100.00;163619.38;5037807;28;20103;-67
2021/12/17 13:39:57;;;;;;;1999.90;999.90;;;;;;;5.08;98.80;163751.06;5043466;28;20403;-67
2021/12/17 13:42:26;;;;;;;1999.90;999.90;;;;;;;4.62;99.77;163627.59;5038873;28;20118;-67
2021/12/17 13:44:55;;;;;;;1999.90;999.90;;;;;;;4.69;99.84;163646.75;5035949;28;20103;-67
2021/12/17 13:47:29;;;;;;;1999.90;999.90;;;;;;;4.70;100.00;163650.88;5038350;28;20106;-67
2021/12/17 13:50:13;;;;;;;1999.90;999.90;;;;;;;4.99;98.73;163726.31;5037544;28;20426;-67
2021/12/17 13:52:55;;;;;;;1999.90;999.90;;;;;;;5.33;97.94;163816.91;5043938;28;20144;-67
2021/12/17 13:55:29;;;;;;;1999.90;999.90;;;;;;;5.14;96.88;163767.53;5033076;28;20102;-67
2021/12/17 13:57:57;;;;;;;1999.90;999.90;;;;;;;5.26;97.39;163800.44;5036226;28;20134;-67
2021/12/17 14:00:36;;;;;;;1999.90;999.90;;;;;;;5.00;98.78;163729.09;5037939;28;20130;-67
2021/12/17 14:03:04;;;;;;;1999.90;999.90;;;;;;;5.26;97.49;163800.44;5036287;28;20079;-67
2021/12/17 14:05:49;;;;;;;1999.90;999.90;;;;;;;5.38;96.94;163832.00;5035009;28;20048;-67
2021/12/17 14:08:18;;;;;;;1999.90;999.90;;;;;;;5.54;96.63;163873.16;5037032;28;20053;-66
2021/12/17 14:10:47;;;;;;;1999.90;999.90;;;;;;;5.51;95.94;163866.34;5043122;28;20076;-66
2021/12/17 14:13:25;;;;;;;1999.90;999.90;;;;;;;5.10;97.88;163757.88;5040010;28;20145;-67